sensor_id;sensor_type;location;lat;lon;timestamp;P1;durP1;ratioP1;P2;durP2;ratioP2
19173;SDS011;9719;49.322;8.536;2023-02-01T00:02:19;2.92;;;2.72;;
19173;SDS011;9719;49.322;8.536;2023-02-01T00:07:23;4.20;;;2.58;;
19173;SDS011;9719;49.322;8.536;2023-02-01T00:12:25;3.17;;;2.97;;
19173;SDS011;9719;49.322;8.536;2023-02-01T00:17:26;4.23;;;3.60;;
19173;SDS011;9719;49.322;8.536;2023-02-01T00:22:29;3.73;;;3.40;;
19173;SDS011;9719;49.322;8.536;2023-02-01T00:27:31;4.43;;;3.17;;
19173;SDS011;9719;49.322;8.536;2023-02-01T00:32:33;4.43;;;3.60;;
19173;SDS011;9719;49.322;8.536;2023-02-01T00:37:36;4.07;;;3.35;;
19173;SDS011;9719;49.322;8.536;2023-02-01T00:42:37;3.30;;;3.00;;
19173;SDS011;9719;49.322;8.536;2023-02-01T00:47:39;4.00;;;3.60;;
19173;SDS011;9719;49.322;8.536;2023-02-01T00:52:42;4.53;;;3.43;;
19173;SDS011;9719;49.322;8.536;2023-02-01T00:57:44;3.60;;;3.30;;
19173;SDS011;9719;49.322;8.536;2023-02-01T01:02:45;4.10;;;3.40;;
19173;SDS011;9719;49.322;8.536;2023-02-01T01:07:48;4.50;;;4.10;;
19173;SDS011;9719;49.322;8.536;2023-02-01T01:12:50;3.27;;;2.80;;
19173;SDS011;9719;49.322;8.536;2023-02-01T01:17:52;3.33;;;3.03;;
19173;SDS011;9719;49.322;8.536;2023-02-01T01:22:55;2.72;;;2.53;;
19173;SDS011;9719;49.322;8.536;2023-02-01T01:27:57;3.53;;;3.23;;
19173;SDS011;9719;49.322;8.536;2023-02-01T01:32:58;3.17;;;2.88;;
19173;SDS011;9719;49.322;8.536;2023-02-01T01:38:02;3.90;;;3.17;;
19173;SDS011;9719;49.322;8.536;2023-02-01T01:43:05;2.30;;;2.20;;
19173;SDS011;9719;49.322;8.536;2023-02-01T01:48:15;2.72;;;2.53;;
19173;SDS011;9719;49.322;8.536;2023-02-01T01:53:20;2.60;;;2.40;;
19173;SDS011;9719;49.322;8.536;2023-02-01T01:58:27;3.50;;;2.87;;
19173;SDS011;9719;49.322;8.536;2023-02-01T02:03:34;3.10;;;2.80;;
19173;SDS011;9719;49.322;8.536;2023-02-01T02:08:39;3.57;;;3.27;;
19173;SDS011;9719;49.322;8.536;2023-02-01T02:13:42;3.27;;;2.73;;
19173;SDS011;9719;49.322;8.536;2023-02-01T02:18:49;3.90;;;2.73;;
19173;SDS011;9719;49.322;8.536;2023-02-01T02:35:36;4.87;;;3.63;;
19173;SDS011;9719;49.322;8.536;2023-02-01T02:40:46;3.80;;;2.93;;
19173;SDS011;9719;49.322;8.536;2023-02-01T02:45:53;4.70;;;3.30;;
19173;SDS011;9719;49.322;8.536;2023-02-01T02:51:22;3.87;;;3.07;;
19173;SDS011;9719;49.322;8.536;2023-02-01T02:56:47;2.70;;;2.50;;
19173;SDS011;9719;49.322;8.536;2023-02-01T03:02:07;3.13;;;2.70;;
19173;SDS011;9719;49.322;8.536;2023-02-01T03:07:49;3.30;;;3.00;;
19173;SDS011;9719;49.322;8.536;2023-02-01T03:12:59;2.92;;;2.60;;
19173;SDS011;9719;49.322;8.536;2023-02-01T03:18:04;3.75;;;3.40;;
19173;SDS011;9719;49.322;8.536;2023-02-01T03:23:13;3.50;;;3.08;;
19173;SDS011;9719;49.322;8.536;2023-02-01T03:28:17;5.55;;;3.60;;
19173;SDS011;9719;49.322;8.536;2023-02-01T03:33:24;4.33;;;3.30;;
19173;SDS011;9719;49.322;8.536;2023-02-01T03:38:32;4.50;;;4.17;;
19173;SDS011;9719;49.322;8.536;2023-02-01T03:43:38;3.90;;;3.00;;
19173;SDS011;9719;49.322;8.536;2023-02-01T03:48:49;4.13;;;3.72;;
19173;SDS011;9719;49.322;8.536;2023-02-01T03:53:53;3.97;;;3.67;;
19173;SDS011;9719;49.322;8.536;2023-02-01T03:58:56;4.60;;;3.63;;
19173;SDS011;9719;49.322;8.536;2023-02-01T04:04:00;4.90;;;3.40;;
19173;SDS011;9719;49.322;8.536;2023-02-01T04:09:03;3.83;;;3.42;;
19173;SDS011;9719;49.322;8.536;2023-02-01T04:14:05;4.67;;;3.37;;
19173;SDS011;9719;49.322;8.536;2023-02-01T04:19:07;5.10;;;3.92;;
19173;SDS011;9719;49.322;8.536;2023-02-01T04:24:10;3.13;;;2.92;;
19173;SDS011;9719;49.322;8.536;2023-02-01T04:29:11;4.47;;;4.07;;
19173;SDS011;9719;49.322;8.536;2023-02-01T04:34:14;4.60;;;3.28;;
19173;SDS011;9719;49.322;8.536;2023-02-01T04:39:17;4.07;;;3.55;;
19173;SDS011;9719;49.322;8.536;2023-02-01T04:44:19;3.45;;;3.15;;
19173;SDS011;9719;49.322;8.536;2023-02-01T04:49:21;4.20;;;3.75;;
19173;SDS011;9719;49.322;8.536;2023-02-01T04:54:24;4.43;;;2.92;;
19173;SDS011;9719;49.322;8.536;2023-02-01T04:59:27;3.00;;;2.70;;
19173;SDS011;9719;49.322;8.536;2023-02-01T05:04:28;4.88;;;3.78;;
19173;SDS011;9719;49.322;8.536;2023-02-01T05:09:31;4.17;;;3.23;;
19173;SDS011;9719;49.322;8.536;2023-02-01T05:14:33;3.22;;;2.92;;
19173;SDS011;9719;49.322;8.536;2023-02-01T05:19:35;2.88;;;2.67;;
19173;SDS011;9719;49.322;8.536;2023-02-01T05:24:38;4.00;;;3.67;;
19173;SDS011;9719;49.322;8.536;2023-02-01T05:29:39;3.60;;;2.70;;
19173;SDS011;9719;49.322;8.536;2023-02-01T05:34:41;2.40;;;2.20;;
19173;SDS011;9719;49.322;8.536;2023-02-01T05:39:44;3.00;;;2.80;;
19173;SDS011;9719;49.322;8.536;2023-02-01T05:44:45;3.77;;;3.07;;
19173;SDS011;9719;49.322;8.536;2023-02-01T05:49:47;4.07;;;3.20;;
19173;SDS011;9719;49.322;8.536;2023-02-01T05:54:50;5.50;;;3.90;;
19173;SDS011;9719;49.322;8.536;2023-02-01T05:59:52;5.25;;;4.18;;
19173;SDS011;9719;49.322;8.536;2023-02-01T06:04:54;4.18;;;3.78;;
19173;SDS011;9719;49.322;8.536;2023-02-01T06:09:57;4.32;;;3.67;;
19173;SDS011;9719;49.322;8.536;2023-02-01T06:14:58;3.20;;;2.90;;
19173;SDS011;9719;49.322;8.536;2023-02-01T06:20:00;3.92;;;3.53;;
19173;SDS011;9719;49.322;8.536;2023-02-01T06:25:03;3.65;;;3.30;;
19173;SDS011;9719;49.322;8.536;2023-02-01T06:30:06;5.30;;;3.30;;
19173;SDS011;9719;49.322;8.536;2023-02-01T06:35:09;4.90;;;3.77;;
19173;SDS011;9719;49.322;8.536;2023-02-01T06:40:17;22.70;;;6.63;;
19173;SDS011;9719;49.322;8.536;2023-02-01T06:45:19;5.25;;;4.70;;
19173;SDS011;9719;49.322;8.536;2023-02-01T06:50:20;5.80;;;5.07;;
19173;SDS011;9719;49.322;8.536;2023-02-01T06:55:23;5.78;;;3.70;;
19173;SDS011;9719;49.322;8.536;2023-02-01T07:00:25;7.03;;;4.38;;
19173;SDS011;9719;49.322;8.536;2023-02-01T07:05:27;5.90;;;4.50;;
19173;SDS011;9719;49.322;8.536;2023-02-01T07:10:29;5.72;;;4.65;;
19173;SDS011;9719;49.322;8.536;2023-02-01T07:15:31;4.85;;;4.30;;
19173;SDS011;9719;49.322;8.536;2023-02-01T07:20:33;3.92;;;3.55;;
19173;SDS011;9719;49.322;8.536;2023-02-01T07:25:36;3.78;;;3.35;;
19173;SDS011;9719;49.322;8.536;2023-02-01T07:30:38;3.23;;;2.93;;
19173;SDS011;9719;49.322;8.536;2023-02-01T07:35:39;3.45;;;2.92;;
19173;SDS011;9719;49.322;8.536;2023-02-01T07:40:43;5.25;;;3.50;;
19173;SDS011;9719;49.322;8.536;2023-02-01T07:45:49;5.20;;;4.70;;
19173;SDS011;9719;49.322;8.536;2023-02-01T07:50:56;5.10;;;4.57;;
19173;SDS011;9719;49.322;8.536;2023-02-01T07:55:59;6.70;;;4.97;;
19173;SDS011;9719;49.322;8.536;2023-02-01T08:01:01;6.17;;;5.53;;
19173;SDS011;9719;49.322;8.536;2023-02-01T08:06:23;10.90;;;5.20;;
19173;SDS011;9719;49.322;8.536;2023-02-01T08:11:27;6.03;;;5.00;;
19173;SDS011;9719;49.322;8.536;2023-02-01T08:16:28;8.97;;;5.90;;
19173;SDS011;9719;49.322;8.536;2023-02-01T08:21:30;8.77;;;5.75;;
19173;SDS011;9719;49.322;8.536;2023-02-01T08:26:37;11.37;;;5.30;;
19173;SDS011;9719;49.322;8.536;2023-02-01T08:31:39;8.53;;;5.77;;
19173;SDS011;9719;49.322;8.536;2023-02-01T08:36:41;6.22;;;4.53;;
19173;SDS011;9719;49.322;8.536;2023-02-01T08:41:44;37.22;;;7.82;;
19173;SDS011;9719;49.322;8.536;2023-02-01T08:47:07;12.07;;;4.40;;
19173;SDS011;9719;49.322;8.536;2023-02-01T08:52:09;6.13;;;5.17;;
19173;SDS011;9719;49.322;8.536;2023-02-01T08:57:11;17.33;;;5.13;;
19173;SDS011;9719;49.322;8.536;2023-02-01T09:02:13;5.27;;;4.23;;
19173;SDS011;9719;49.322;8.536;2023-02-01T09:07:16;6.20;;;4.03;;
19173;SDS011;9719;49.322;8.536;2023-02-01T09:12:19;6.78;;;3.78;;
19173;SDS011;9719;49.322;8.536;2023-02-01T09:17:21;4.90;;;3.60;;
19173;SDS011;9719;49.322;8.536;2023-02-01T09:22:22;6.15;;;3.55;;
19173;SDS011;9719;49.322;8.536;2023-02-01T09:27:26;6.63;;;3.65;;
19173;SDS011;9719;49.322;8.536;2023-02-01T09:32:27;6.93;;;4.55;;
19173;SDS011;9719;49.322;8.536;2023-02-01T09:37:29;8.80;;;4.25;;
19173;SDS011;9719;49.322;8.536;2023-02-01T09:42:41;8.38;;;4.47;;
19173;SDS011;9719;49.322;8.536;2023-02-01T09:48:08;5.82;;;3.67;;
19173;SDS011;9719;49.322;8.536;2023-02-01T09:53:15;12.07;;;3.80;;
19173;SDS011;9719;49.322;8.536;2023-02-01T09:58:24;8.15;;;5.30;;
19173;SDS011;9719;49.322;8.536;2023-02-01T10:03:31;8.20;;;3.50;;
19173;SDS011;9719;49.322;8.536;2023-02-01T10:08:38;6.57;;;3.85;;
19173;SDS011;9719;49.322;8.536;2023-02-01T10:13:59;6.95;;;2.63;;
19173;SDS011;9719;49.322;8.536;2023-02-01T10:19:21;5.65;;;2.40;;
19173;SDS011;9719;49.322;8.536;2023-02-01T10:24:40;5.18;;;3.63;;
19173;SDS011;9719;49.322;8.536;2023-02-01T10:29:49;5.57;;;2.88;;
19173;SDS011;9719;49.322;8.536;2023-02-01T10:34:55;6.10;;;2.70;;
19173;SDS011;9719;49.322;8.536;2023-02-01T10:40:00;5.22;;;2.60;;
19173;SDS011;9719;49.322;8.536;2023-02-01T10:45:11;6.45;;;2.70;;
19173;SDS011;9719;49.322;8.536;2023-02-01T10:50:17;9.18;;;3.85;;
19173;SDS011;9719;49.322;8.536;2023-02-01T10:55:30;5.93;;;3.25;;
19173;SDS011;9719;49.322;8.536;2023-02-01T11:00:40;5.15;;;2.53;;
19173;SDS011;9719;49.322;8.536;2023-02-01T11:05:44;13.60;;;3.72;;
19173;SDS011;9719;49.322;8.536;2023-02-01T11:10:47;5.63;;;2.78;;
19173;SDS011;9719;49.322;8.536;2023-02-01T11:15:59;6.03;;;2.75;;
19173;SDS011;9719;49.322;8.536;2023-02-01T11:21:04;8.48;;;2.83;;
19173;SDS011;9719;49.322;8.536;2023-02-01T11:26:09;5.30;;;2.58;;
19173;SDS011;9719;49.322;8.536;2023-02-01T11:31:14;7.30;;;3.58;;
19173;SDS011;9719;49.322;8.536;2023-02-01T11:36:16;8.18;;;2.95;;
19173;SDS011;9719;49.322;8.536;2023-02-01T11:41:21;8.40;;;3.28;;
19173;SDS011;9719;49.322;8.536;2023-02-01T11:46:27;6.10;;;2.88;;
19173;SDS011;9719;49.322;8.536;2023-02-01T11:51:34;7.78;;;2.80;;
19173;SDS011;9719;49.322;8.536;2023-02-01T11:56:46;6.57;;;2.60;;
19173;SDS011;9719;49.322;8.536;2023-02-01T12:02:03;5.90;;;3.95;;
19173;SDS011;9719;49.322;8.536;2023-02-01T12:07:23;7.43;;;3.13;;
19173;SDS011;9719;49.322;8.536;2023-02-01T12:12:31;5.78;;;3.42;;
19173;SDS011;9719;49.322;8.536;2023-02-01T12:23:34;7.53;;;2.60;;
19173;SDS011;9719;49.322;8.536;2023-02-01T12:28:56;10.23;;;3.75;;
19173;SDS011;9719;49.322;8.536;2023-02-01T12:34:16;8.68;;;4.07;;
19173;SDS011;9719;49.322;8.536;2023-02-01T12:39:40;6.55;;;2.75;;
19173;SDS011;9719;49.322;8.536;2023-02-01T12:44:50;5.72;;;2.38;;
19173;SDS011;9719;49.322;8.536;2023-02-01T12:49:58;6.32;;;3.03;;
19173;SDS011;9719;49.322;8.536;2023-02-01T12:55:07;3.30;;;2.30;;
19173;SDS011;9719;49.322;8.536;2023-02-01T13:00:19;5.82;;;2.65;;
19173;SDS011;9719;49.322;8.536;2023-02-01T13:05:29;9.25;;;2.95;;
19173;SDS011;9719;49.322;8.536;2023-02-01T13:10:38;4.07;;;2.22;;
19173;SDS011;9719;49.322;8.536;2023-02-01T13:15:44;4.00;;;2.20;;
19173;SDS011;9719;49.322;8.536;2023-02-01T13:20:50;11.23;;;4.25;;
19173;SDS011;9719;49.322;8.536;2023-02-01T13:25:58;3.97;;;2.65;;
19173;SDS011;9719;49.322;8.536;2023-02-01T13:31:05;4.60;;;2.83;;
19173;SDS011;9719;49.322;8.536;2023-02-01T13:36:34;3.80;;;2.15;;
19173;SDS011;9719;49.322;8.536;2023-02-01T13:42:01;9.82;;;2.70;;
19173;SDS011;9719;49.322;8.536;2023-02-01T13:47:10;6.25;;;2.45;;
19173;SDS011;9719;49.322;8.536;2023-02-01T13:52:25;3.30;;;2.00;;
19173;SDS011;9719;49.322;8.536;2023-02-01T13:57:36;4.18;;;2.53;;
19173;SDS011;9719;49.322;8.536;2023-02-01T14:02:49;6.43;;;3.13;;
19173;SDS011;9719;49.322;8.536;2023-02-01T14:08:09;6.10;;;2.75;;
19173;SDS011;9719;49.322;8.536;2023-02-01T14:13:21;8.60;;;2.60;;
19173;SDS011;9719;49.322;8.536;2023-02-01T14:24:00;8.35;;;2.50;;
19173;SDS011;9719;49.322;8.536;2023-02-01T14:29:12;9.75;;;2.78;;
19173;SDS011;9719;49.322;8.536;2023-02-01T14:34:29;8.57;;;3.25;;
19173;SDS011;9719;49.322;8.536;2023-02-01T14:39:37;5.10;;;2.40;;
19173;SDS011;9719;49.322;8.536;2023-02-01T14:44:51;4.10;;;2.25;;
19173;SDS011;9719;49.322;8.536;2023-02-01T14:49:55;5.10;;;2.22;;
19173;SDS011;9719;49.322;8.536;2023-02-01T14:55:02;4.65;;;2.17;;
19173;SDS011;9719;49.322;8.536;2023-02-01T15:00:14;4.90;;;2.33;;
19173;SDS011;9719;49.322;8.536;2023-02-01T15:05:28;3.50;;;2.03;;
19173;SDS011;9719;49.322;8.536;2023-02-01T15:10:33;3.33;;;2.10;;
19173;SDS011;9719;49.322;8.536;2023-02-01T15:15:43;4.30;;;2.47;;
19173;SDS011;9719;49.322;8.536;2023-02-01T15:20:44;10.82;;;3.10;;
19173;SDS011;9719;49.322;8.536;2023-02-01T15:25:58;5.65;;;1.95;;
19173;SDS011;9719;49.322;8.536;2023-02-01T15:31:02;3.60;;;2.10;;
19173;SDS011;9719;49.322;8.536;2023-02-01T15:36:09;4.18;;;2.00;;
19173;SDS011;9719;49.322;8.536;2023-02-01T15:41:13;5.60;;;2.65;;
19173;SDS011;9719;49.322;8.536;2023-02-01T15:46:32;7.43;;;2.53;;
19173;SDS011;9719;49.322;8.536;2023-02-01T15:51:38;5.88;;;2.20;;
19173;SDS011;9719;49.322;8.536;2023-02-01T15:56:49;5.95;;;2.67;;
19173;SDS011;9719;49.322;8.536;2023-02-01T16:01:54;5.38;;;2.38;;
19173;SDS011;9719;49.322;8.536;2023-02-01T16:06:57;5.38;;;2.33;;
19173;SDS011;9719;49.322;8.536;2023-02-01T16:12:03;6.07;;;2.45;;
19173;SDS011;9719;49.322;8.536;2023-02-01T16:17:23;6.18;;;2.90;;
19173;SDS011;9719;49.322;8.536;2023-02-01T16:22:25;9.05;;;2.70;;
19173;SDS011;9719;49.322;8.536;2023-02-01T16:27:27;7.38;;;2.67;;
19173;SDS011;9719;49.322;8.536;2023-02-01T16:32:30;6.57;;;2.57;;
19173;SDS011;9719;49.322;8.536;2023-02-01T16:37:32;8.23;;;3.60;;
19173;SDS011;9719;49.322;8.536;2023-02-01T16:42:54;6.97;;;2.63;;
19173;SDS011;9719;49.322;8.536;2023-02-01T16:48:10;5.63;;;2.45;;
19173;SDS011;9719;49.322;8.536;2023-02-01T16:53:21;6.72;;;2.13;;
19173;SDS011;9719;49.322;8.536;2023-02-01T16:58:33;8.13;;;2.70;;
19173;SDS011;9719;49.322;8.536;2023-02-01T17:03:37;5.15;;;2.50;;
19173;SDS011;9719;49.322;8.536;2023-02-01T17:08:40;8.97;;;3.87;;
19173;SDS011;9719;49.322;8.536;2023-02-01T17:13:43;9.18;;;4.32;;
19173;SDS011;9719;49.322;8.536;2023-02-01T17:18:47;3.05;;;2.63;;
19173;SDS011;9719;49.322;8.536;2023-02-01T17:23:55;3.83;;;2.70;;
19173;SDS011;9719;49.322;8.536;2023-02-01T17:28:58;3.38;;;2.13;;
19173;SDS011;9719;49.322;8.536;2023-02-01T17:34:02;6.38;;;2.38;;
19173;SDS011;9719;49.322;8.536;2023-02-01T17:39:03;7.28;;;2.85;;
19173;SDS011;9719;49.322;8.536;2023-02-01T17:44:07;7.45;;;2.60;;
19173;SDS011;9719;49.322;8.536;2023-02-01T17:49:12;5.07;;;2.30;;
19173;SDS011;9719;49.322;8.536;2023-02-01T17:54:13;4.40;;;2.88;;
19173;SDS011;9719;49.322;8.536;2023-02-01T17:59:16;5.65;;;2.75;;
19173;SDS011;9719;49.322;8.536;2023-02-01T18:04:20;3.70;;;2.42;;
19173;SDS011;9719;49.322;8.536;2023-02-01T18:09:22;5.45;;;2.63;;
19173;SDS011;9719;49.322;8.536;2023-02-01T18:14:23;4.70;;;3.40;;
19173;SDS011;9719;49.322;8.536;2023-02-01T18:19:27;9.18;;;3.08;;
19173;SDS011;9719;49.322;8.536;2023-02-01T18:24:28;5.10;;;3.55;;
19173;SDS011;9719;49.322;8.536;2023-02-01T18:29:32;9.23;;;2.95;;
19173;SDS011;9719;49.322;8.536;2023-02-01T18:34:35;7.53;;;3.42;;
19173;SDS011;9719;49.322;8.536;2023-02-01T18:39:37;5.03;;;2.70;;
19173;SDS011;9719;49.322;8.536;2023-02-01T18:44:39;7.82;;;3.15;;
19173;SDS011;9719;49.322;8.536;2023-02-01T18:49:42;5.35;;;3.10;;
19173;SDS011;9719;49.322;8.536;2023-02-01T18:54:44;9.65;;;3.63;;
19173;SDS011;9719;49.322;8.536;2023-02-01T18:59:46;7.93;;;3.22;;
19173;SDS011;9719;49.322;8.536;2023-02-01T19:04:49;5.43;;;2.55;;
19173;SDS011;9719;49.322;8.536;2023-02-01T19:09:51;5.50;;;3.05;;
19173;SDS011;9719;49.322;8.536;2023-02-01T19:14:53;8.32;;;3.30;;
19173;SDS011;9719;49.322;8.536;2023-02-01T19:19:56;5.10;;;2.72;;
19173;SDS011;9719;49.322;8.536;2023-02-01T19:24:58;8.98;;;3.38;;
19173;SDS011;9719;49.322;8.536;2023-02-01T19:30:00;7.55;;;2.45;;
19173;SDS011;9719;49.322;8.536;2023-02-01T19:35:04;5.35;;;3.00;;
19173;SDS011;9719;49.322;8.536;2023-02-01T19:40:07;6.55;;;2.40;;
19173;SDS011;9719;49.322;8.536;2023-02-01T19:45:10;6.45;;;3.05;;
19173;SDS011;9719;49.322;8.536;2023-02-01T19:50:16;8.40;;;3.58;;
19173;SDS011;9719;49.322;8.536;2023-02-01T19:55:20;11.20;;;3.67;;
19173;SDS011;9719;49.322;8.536;2023-02-01T20:00:22;4.07;;;2.90;;
19173;SDS011;9719;49.322;8.536;2023-02-01T20:05:26;5.93;;;2.28;;
19173;SDS011;9719;49.322;8.536;2023-02-01T20:10:28;10.00;;;3.58;;
19173;SDS011;9719;49.322;8.536;2023-02-01T20:15:30;5.97;;;3.22;;
19173;SDS011;9719;49.322;8.536;2023-02-01T20:20:33;6.63;;;3.35;;
19173;SDS011;9719;49.322;8.536;2023-02-01T20:25:35;4.88;;;2.80;;
19173;SDS011;9719;49.322;8.536;2023-02-01T20:30:37;9.82;;;4.07;;
19173;SDS011;9719;49.322;8.536;2023-02-01T20:35:43;4.85;;;2.42;;
19173;SDS011;9719;49.322;8.536;2023-02-01T20:40:45;7.82;;;2.67;;
19173;SDS011;9719;49.322;8.536;2023-02-01T20:45:48;7.45;;;4.30;;
19173;SDS011;9719;49.322;8.536;2023-02-01T20:50:53;3.95;;;2.85;;
19173;SDS011;9719;49.322;8.536;2023-02-01T20:55:55;6.43;;;3.95;;
19173;SDS011;9719;49.322;8.536;2023-02-01T21:00:58;6.35;;;2.72;;
19173;SDS011;9719;49.322;8.536;2023-02-01T21:06:02;10.27;;;2.80;;
19173;SDS011;9719;49.322;8.536;2023-02-01T21:11:05;5.88;;;2.63;;
19173;SDS011;9719;49.322;8.536;2023-02-01T21:16:09;6.40;;;3.83;;
19173;SDS011;9719;49.322;8.536;2023-02-01T21:21:14;5.43;;;2.92;;
19173;SDS011;9719;49.322;8.536;2023-02-01T21:26:17;4.80;;;2.00;;
19173;SDS011;9719;49.322;8.536;2023-02-01T21:31:21;5.72;;;2.95;;
19173;SDS011;9719;49.322;8.536;2023-02-01T21:36:26;3.80;;;2.88;;
19173;SDS011;9719;49.322;8.536;2023-02-01T21:41:32;6.45;;;3.05;;
19173;SDS011;9719;49.322;8.536;2023-02-01T21:46:52;4.13;;;3.05;;
19173;SDS011;9719;49.322;8.536;2023-02-01T21:51:56;5.90;;;2.70;;
19173;SDS011;9719;49.322;8.536;2023-02-01T21:56:58;3.83;;;2.33;;
19173;SDS011;9719;49.322;8.536;2023-02-01T22:02:00;6.25;;;2.90;;
19173;SDS011;9719;49.322;8.536;2023-02-01T22:07:03;9.68;;;3.33;;
19173;SDS011;9719;49.322;8.536;2023-02-01T22:12:05;4.88;;;2.72;;
19173;SDS011;9719;49.322;8.536;2023-02-01T22:17:07;5.82;;;2.92;;
19173;SDS011;9719;49.322;8.536;2023-02-01T22:22:10;5.38;;;2.85;;
19173;SDS011;9719;49.322;8.536;2023-02-01T22:27:12;6.78;;;2.65;;
19173;SDS011;9719;49.322;8.536;2023-02-01T22:32:14;7.05;;;3.33;;
19173;SDS011;9719;49.322;8.536;2023-02-01T22:37:17;5.55;;;3.15;;
19173;SDS011;9719;49.322;8.536;2023-02-01T22:42:19;6.35;;;3.75;;
19173;SDS011;9719;49.322;8.536;2023-02-01T22:47:20;6.63;;;2.92;;
19173;SDS011;9719;49.322;8.536;2023-02-01T22:52:24;8.87;;;3.57;;
19173;SDS011;9719;49.322;8.536;2023-02-01T22:57:25;6.68;;;4.78;;
19173;SDS011;9719;49.322;8.536;2023-02-01T23:02:27;5.95;;;3.20;;
19173;SDS011;9719;49.322;8.536;2023-02-01T23:07:30;6.75;;;2.97;;
19173;SDS011;9719;49.322;8.536;2023-02-01T23:12:32;5.68;;;2.92;;
19173;SDS011;9719;49.322;8.536;2023-02-01T23:17:34;5.43;;;2.70;;
19173;SDS011;9719;49.322;8.536;2023-02-01T23:22:38;8.80;;;3.72;;
19173;SDS011;9719;49.322;8.536;2023-02-01T23:27:40;8.38;;;3.33;;
19173;SDS011;9719;49.322;8.536;2023-02-01T23:32:42;9.32;;;4.43;;
19173;SDS011;9719;49.322;8.536;2023-02-01T23:37:45;7.78;;;3.80;;
19173;SDS011;9719;49.322;8.536;2023-02-01T23:42:47;7.32;;;4.53;;
19173;SDS011;9719;49.322;8.536;2023-02-01T23:48:09;8.00;;;2.67;;
19173;SDS011;9719;49.322;8.536;2023-02-01T23:53:12;10.25;;;3.25;;
19173;SDS011;9719;49.322;8.536;2023-02-01T23:58:13;7.13;;;3.45;;
